Karei — V7TL2 — position and weather

sailwx.info

Track history (hours):
 
Tides and Currents Weather Stations Pressure Air Temp Water Temp Dewpoint Dewpoint Depression Visibility Wind Speed Wind Dir Waves Ship Positions

Karei

Last reported at 2017-Dec-04 08:20 UTC. Time now 2017-Dec-13 20:54 UTC.
Position N 31°01' E 122°25'.
Warning: this ship's position is 9 days out of date.

Length 228 m; draft 8.9 m.

Type: Tanker. MMSI: 538003823.

Date/timePositionNaut miles runAvg speedWind from/ knotsBaromVisibWave heightAir tempDewpointWater temp
2017-Dec-04 08:20N 31°01' E 122°25'413.5
2017-Dec-04 08:01N 31°02' E 122°20'713.4
2017-Dec-04 07:28N 31°03' E 122°12'714.0
2017-Dec-04 07:00N 31°04' E 122°04'713.0
2017-Dec-04 06:30N 31°07' E 121°57'914.0
2017-Dec-04 05:53N 31°12' E 121°49'1711.0
2017-Dec-04 04:18N 31°24' E 121°34'4 7.4
2017-Dec-04 03:46N 31°26' E 121°30'4 9.6
2017-Dec-04 03:24N 31°28' E 121°27'3 6.5
2017-Dec-04 02:59N 31°31' E 121°26'510.7
2017-Dec-04 02:30N 31°30' E 121°32'3 4.7
2017-Dec-04 01:50N 31°31' E 121°36'3 9.9
2017-Dec-04 01:30N 31°32' E 121°33'510.6
2017-Dec-04 01:00N 31°35' E 121°27'1 1.1
2017-Dec-04 00:30N 31°36' E 121°27'0 0.0
2017-Dec-04 00:00N 31°36' E 121°27'0 0.0
2017-Dec-03 23:21N 31°36' E 121°27'0 0.0
2017-Dec-03 23:00N 31°36' E 121°27'0 0.0
2017-Dec-03 22:27N 31°36' E 121°27'0 0.0
2017-Dec-03 21:57N 31°36' E 121°27'0 0.0
2017-Dec-03 21:27N 31°36' E 121°27'0 0.0
2017-Dec-03 20:57N 31°36' E 121°27'0 0.0
2017-Dec-03 20:27N 31°36' E 121°27'0 0.0
2017-Dec-03 19:57N 31°36' E 121°27'0 0.0
2017-Dec-03 19:15N 31°36' E 121°27'0 0.0
2017-Dec-03 18:57N 31°36' E 121°27'0 0.0
2017-Dec-03 18:27N 31°36' E 121°27'0 0.0
2017-Dec-03 17:57N 31°36' E 121°27'0 0.0
2017-Dec-03 17:09N 31°36' E 121°27'0 0.0
2017-Dec-03 17:00N 31°36' E 121°27'0 0.0
2017-Dec-03 16:21N 31°36' E 121°27'0 0.0
2017-Dec-03 15:57N 31°36' E 121°27'0 0.0
2017-Dec-03 15:30N 31°36' E 121°27'0 0.0
2017-Dec-03 14:45N 31°36' E 121°27'0 0.0
2017-Dec-03 14:12N 31°36' E 121°27'0 0.0
2017-Dec-03 13:51N 31°36' E 121°27'0 0.0
2017-Dec-03 13:27N 31°36' E 121°27'0 0.0
2017-Dec-03 12:57N 31°36' E 121°27'0 0.0
2017-Dec-03 12:30N 31°36' E 121°27'0 0.0
2017-Dec-03 11:51N 31°36' E 121°27'0 0.0
2017-Dec-03 11:30N 31°36' E 121°27'0 0.0
2017-Dec-03 10:57N 31°36' E 121°27'0 0.0
2017-Dec-03 10:30N 31°36' E 121°27'0 0.0
2017-Dec-03 09:57N 31°36' E 121°27'0 0.0
2017-Dec-03 09:27N 31°36' E 121°27'0 0.0
2017-Dec-03 08:57N 31°36' E 121°27'0 0.0
2017-Dec-03 08:03N 31°36' E 121°27'0 0.0
2017-Dec-03 08:00N 31°36' E 121°27'0 0.0
2017-Dec-03 07:27N 31°36' E 121°27'0 0.0
2017-Dec-03 06:51N 31°36' E 121°27'0 0.0
2017-Dec-03 06:27N 31°36' E 121°27'0 0.0
2017-Dec-03 05:57N 31°36' E 121°27'0 0.0
2017-Dec-03 05:27N 31°36' E 121°27'0 0.0
2017-Dec-03 04:51N 31°36' E 121°27'0 0.0
2017-Dec-03 04:27N 31°36' E 121°27'0 0.0
2017-Dec-03 03:57N 31°36' E 121°27'0 0.0
2017-Dec-03 03:21N 31°36' E 121°27'0 0.0
2017-Dec-03 02:57N 31°36' E 121°27'0 0.0
2017-Dec-03 02:21N 31°36' E 121°27'0 0.0
2017-Dec-03 01:57N 31°36' E 121°27'0 0.0
2017-Dec-03 01:27N 31°36' E 121°27'0 0.0
2017-Dec-03 01:00N 31°36' E 121°27'0 0.0
2017-Dec-03 00:27N 31°36' E 121°27'0 0.0
2017-Dec-02 23:57N 31°36' E 121°27'0 0.0
2017-Dec-02 23:30N 31°36' E 121°27'0 0.0
2017-Dec-02 22:56N 31°36' E 121°27'0 0.0
2017-Dec-02 22:27N 31°36' E 121°27'0 0.0
2017-Dec-02 21:27N 31°36' E 121°27'0 0.0
2017-Dec-02 20:51N 31°36' E 121°27'0 0.0
2017-Dec-02 20:27N 31°36' E 121°27'0 0.0
2017-Dec-02 19:57N 31°36' E 121°27'0 0.0
2017-Dec-02 19:27N 31°36' E 121°27'0 0.0
2017-Dec-02 18:51N 31°36' E 121°27'0 0.0
2017-Dec-02 18:29N 31°36' E 121°27'0 0.0
2017-Dec-02 17:54N 31°36' E 121°27'0 0.0
2017-Dec-02 17:27N 31°36' E 121°27'0 0.0
2017-Dec-02 17:00N 31°36' E 121°27'0 0.0
2017-Dec-02 16:30N 31°36' E 121°27'0 0.0
2017-Dec-02 15:59N 31°36' E 121°27'0 0.0
2017-Dec-02 15:24N 31°36' E 121°27'0 0.0
2017-Dec-02 14:59N 31°36' E 121°27'0 0.0
2017-Dec-02 14:27N 31°36' E 121°27'0 0.0
2017-Dec-02 14:00N 31°36' E 121°27'0 0.0
2017-Dec-02 13:21N 31°36' E 121°27'0 0.0
2017-Dec-02 12:50N 31°36' E 121°27'0 0.0
2017-Dec-02 12:30N 31°36' E 121°27'0 0.0
2017-Dec-02 12:00N 31°36' E 121°27'0 0.0
2017-Dec-02 11:27N 31°36' E 121°27'0 0.0
2017-Dec-02 10:39N 31°36' E 121°27'0 0.0
2017-Dec-02 10:30N 31°36' E 121°27'0 0.0
2017-Dec-02 09:11N 31°36' E 121°27'0 0.0
2017-Dec-02 08:50N 31°36' E 121°27'0 0.0
2017-Dec-02 08:21N 31°36' E 121°27'0 0.0
2017-Dec-02 07:59N 31°36' E 121°27'0 0.0
2017-Dec-02 07:21N 31°36' E 121°27'0 0.0
2017-Dec-02 06:57N 31°36' E 121°27'0 0.0
2017-Dec-02 06:27N 31°36' E 121°27'0 0.0
2017-Dec-02 05:57N 31°36' E 121°27'0 0.0
2017-Dec-02 05:29N 31°36' E 121°27'0 0.0
2017-Dec-02 04:56N 31°36' E 121°27'0 0.0
2017-Dec-02 04:27N 31°36' E 121°27'0 0.0
2017-Dec-02 03:57N 31°36' E 121°27'0 0.0
2017-Dec-02 03:27N 31°36' E 121°27'0 0.0
2017-Dec-02 02:57N 31°36' E 121°27'0 0.0
2017-Dec-02 02:27N 31°36' E 121°27'0 0.0
2017-Dec-02 01:57N 31°36' E 121°27'0 0.0
2017-Dec-02 01:09N 31°36' E 121°27'0 0.0
2017-Dec-02 01:00N 31°36' E 121°27'0 0.0
2017-Dec-02 00:30N 31°36' E 121°27'0 0.0
2017-Dec-02 00:00N 31°36' E 121°27'0 0.0
2017-Dec-01 23:27N 31°36' E 121°27'0 0.0
2017-Dec-01 22:57N 31°36' E 121°27'0 0.0
2017-Dec-01 22:30N 31°36' E 121°27'0 0.0
2017-Dec-01 21:53N 31°36' E 121°27'0 0.0
2017-Dec-01 21:27N 31°36' E 121°27'0 0.0
2017-Dec-01 20:57N 31°36' E 121°27'0 0.0
2017-Dec-01 20:23N 31°36' E 121°27'0 0.0
2017-Dec-01 19:59N 31°36' E 121°27'0 0.0
2017-Dec-01 19:24N 31°36' E 121°27'0 0.0
2017-Dec-01 18:24N 31°36' E 121°27'0 0.0
2017-Dec-01 17:54N 31°36' E 121°27'0 0.0
2017-Dec-01 17:30N 31°36' E 121°27'0 0.0
2017-Dec-01 17:00N 31°36' E 121°27'0 0.0
2017-Dec-01 16:30N 31°36' E 121°27'0 0.0
2017-Dec-01 15:57N 31°36' E 121°27'0 0.0
2017-Dec-01 15:00N 31°36' E 121°27'0 0.0
2017-Dec-01 14:24N 31°36' E 121°27'0 0.0
2017-Dec-01 13:51N 31°36' E 121°27'0 0.0
2017-Dec-01 13:30N 31°36' E 121°27'0 0.0
2017-Dec-01 12:54N 31°36' E 121°27'0 0.0
2017-Dec-01 12:00N 31°36' E 121°27'0 0.0
2017-Dec-01 11:24N 31°36' E 121°27'0 0.0
2017-Dec-01 10:48N 31°36' E 121°27'0 0.0
2017-Dec-01 10:15N 31°36' E 121°27'0 0.0
2017-Dec-01 09:51N 31°36' E 121°27'0 0.0
2017-Dec-01 09:30N 31°36' E 121°27'0 0.0
2017-Dec-01 09:00N 31°36' E 121°27'0 0.0
2017-Dec-01 08:24N 31°36' E 121°27'0 0.0
2017-Dec-01 07:57N 31°36' E 121°27'0 0.0
2017-Dec-01 07:21N 31°36' E 121°27'0 0.0
2017-Dec-01 06:57N 31°36' E 121°27'0 0.0
2017-Dec-01 06:30N 31°36' E 121°27'0 0.0
2017-Dec-01 06:00N 31°36' E 121°27'0 0.0
2017-Dec-01 05:27N 31°36' E 121°27'0 0.0
2017-Dec-01 05:00N 31°36' E 121°27'0 0.0
2017-Dec-01 04:27N 31°36' E 121°27'0 0.0
2017-Dec-01 03:45N 31°36' E 121°27'0 0.0
2017-Dec-01 03:30N 31°36' E 121°27'0 0.0
2017-Dec-01 03:00N 31°36' E 121°27'0 0.0
2017-Dec-01 02:27N 31°36' E 121°27'0 0.0
2017-Dec-01 01:57N 31°36' E 121°27'0 0.0
2017-Dec-01 01:12N 31°36' E 121°27'0 0.0
2017-Dec-01 00:57N 31°36' E 121°27'0 0.0
2017-Dec-01 00:30N 31°36' E 121°27'0 0.0
2017-Dec-01 00:00N 31°36' E 121°27'0 0.0
2017-Nov-30 23:21N 31°36' E 121°27'0 0.0
2017-Nov-30 22:51N 31°36' E 121°27'0 0.0
2017-Nov-30 22:21N 31°36' E 121°27'0 0.0
2017-Nov-30 21:57N 31°36' E 121°27'0 0.0
2017-Nov-30 21:27N 31°36' E 121°27'0 0.0
2017-Nov-30 21:00N 31°36' E 121°27'0 0.0
2017-Nov-30 20:18N 31°36' E 121°27'0 0.0
2017-Nov-30 19:59N 31°36' E 121°27'0 0.0
2017-Nov-30 19:21N 31°36' E 121°27'0 0.0
2017-Nov-30 18:18N 31°36' E 121°27'0 0.0
2017-Nov-30 18:00N 31°36' E 121°27'0 0.0
2017-Nov-30 17:27N 31°36' E 121°27'0 0.0
2017-Nov-30 17:00N 31°36' E 121°27'0 0.0
2017-Nov-30 16:24N 31°36' E 121°27'0 0.0
2017-Nov-30 15:54N 31°36' E 121°27'0 0.0
2017-Nov-30 15:12N 31°36' E 121°27'0 0.0
2017-Nov-30 15:00N 31°36' E 121°27'0 0.0
2017-Nov-30 14:30N 31°36' E 121°27'0 0.0
2017-Nov-30 13:57N 31°36' E 121°27'0 0.0
2017-Nov-30 13:30N 31°36' E 121°27'0 0.0
2017-Nov-30 12:54N 31°36' E 121°27'0 0.0
2017-Nov-30 12:27N 31°36' E 121°27'0 0.0
2017-Nov-30 11:48N 31°36' E 121°27'0 0.0
2017-Nov-30 11:27N 31°36' E 121°27'0 0.0
2017-Nov-30 11:00N 31°36' E 121°27'0 0.0
2017-Nov-30 10:03N 31°36' E 121°27'0 0.0
2017-Nov-30 10:00N 31°36' E 121°27'0 0.0
2017-Nov-30 09:30N 31°36' E 121°27'0 0.0
2017-Nov-30 09:00N 31°36' E 121°27'0 0.0
2017-Nov-30 08:24N 31°36' E 121°27'0 0.0
2017-Nov-30 07:57N 31°36' E 121°27'0 0.0
2017-Nov-30 07:15N 31°36' E 121°27'0 0.0
2017-Nov-30 06:51N 31°36' E 121°27'0 0.0
2017-Nov-30 06:27N 31°36' E 121°27'0 0.0
2017-Nov-30 05:42N 31°36' E 121°27'0 0.0
2017-Nov-30 05:30N 31°36' E 121°27'0 0.0
2017-Nov-30 04:57N 31°36' E 121°27'0 0.0
2017-Nov-30 04:21N 31°36' E 121°27'0 0.0
2017-Nov-30 03:59N 31°36' E 121°27'0 0.0
2017-Nov-30 03:30N 31°36' E 121°27'0 0.0
2017-Nov-30 02:54N 31°36' E 121°27'0 0.0
2017-Nov-30 02:30N 31°36' E 121°27'0 0.0
2017-Nov-30 01:59N 31°36' E 121°27'0 0.0
2017-Nov-30 01:24N 31°36' E 121°27'0 0.0
2017-Nov-30 00:48N 31°36' E 121°27'0 0.0
2017-Nov-30 00:24N 31°36' E 121°27'0 0.0
2017-Nov-29 23:56N 31°36' E 121°27'0 0.0
2017-Nov-29 23:27N 31°36' E 121°27'0 0.0
2017-Nov-29 22:57N 31°36' E 121°27'0 0.0
2017-Nov-29 22:30N 31°36' E 121°27'0 0.0
2017-Nov-29 21:57N 31°36' E 121°27'0 0.0
2017-Nov-29 21:27N 31°36' E 121°27'0 0.0
2017-Nov-29 20:57N 31°36' E 121°27'0 0.0
2017-Nov-29 20:27N 31°36' E 121°27'0 0.0
2017-Nov-29 19:45N 31°36' E 121°27'0 0.0
2017-Nov-29 19:30N 31°36' E 121°27'0 0.0
2017-Nov-29 18:45N 31°36' E 121°27'0 0.0
2017-Nov-29 18:27N 31°36' E 121°27'0 0.0
2017-Nov-29 17:57N 31°36' E 121°27'0 0.0
2017-Nov-29 17:27N 31°36' E 121°27'0 0.0
2017-Nov-29 16:54N 31°36' E 121°27'0 0.0
2017-Nov-29 16:27N 31°36' E 121°27'0 0.0
2017-Nov-29 15:48N 31°36' E 121°27'0 0.0
2017-Nov-29 15:21N 31°36' E 121°27'0 0.0
2017-Nov-29 15:00N 31°36' E 121°27'0 0.0
2017-Nov-29 14:30N 31°36' E 121°27'0 0.0
2017-Nov-29 13:51N 31°36' E 121°27'0 0.0
2017-Nov-29 13:30N 31°36' E 121°27'0 0.0
2017-Nov-29 12:57N 31°36' E 121°27'0 0.0
2017-Nov-29 12:03N 31°36' E 121°27'0 0.1
2017-Nov-29 11:57N 31°36' E 121°27'0 0.0
2017-Nov-29 11:26N 31°36' E 121°27'0 0.0
2017-Nov-29 10:51N 31°36' E 121°27'0 0.0
2017-Nov-29 10:21N 31°36' E 121°27'0 0.0
2017-Nov-29 09:57N 31°36' E 121°27'0 0.0
2017-Nov-29 09:15N 31°36' E 121°27'0 0.0
2017-Nov-29 08:57N 31°36' E 121°27'0 0.0
2017-Nov-29 08:30N 31°36' E 121°27'0 0.0
2017-Nov-29 07:57N 31°36' E 121°27'0 0.0
2017-Nov-29 07:09N 31°36' E 121°27'0 0.0
2017-Nov-29 06:45N 31°36' E 121°27'0 0.0
2017-Nov-29 06:21N 31°36' E 121°27'0 0.0
2017-Nov-29 05:56N 31°36' E 121°27'0 0.0
2017-Nov-29 05:09N 31°36' E 121°27'0 0.0
2017-Nov-29 04:57N 31°36' E 121°27'0 0.0
2017-Nov-29 04:27N 31°36' E 121°27'0 0.0
2017-Nov-29 03:51N 31°36' E 121°27'0 0.0
2017-Nov-29 03:27N 31°36' E 121°27'0 0.0
2017-Nov-29 03:00N 31°36' E 121°27'0 0.0
2017-Nov-29 02:27N 31°36' E 121°27'0 0.0
2017-Nov-29 01:57N 31°36' E 121°27'0 0.0
2017-Nov-29 01:30N 31°36' E 121°27'0 0.0
2017-Nov-29 00:51N 31°36' E 121°27'0 0.0
2017-Nov-29 00:30N 31°36' E 121°27'0 0.0
2017-Nov-28 23:50N 31°36' E 121°27'0 0.0
2017-Nov-28 23:30N 31°36' E 121°27'0 0.0
2017-Nov-28 23:00N 31°36' E 121°27'0 0.0
2017-Nov-28 22:24N 31°36' E 121°27'0 0.0
2017-Nov-28 22:00N 31°36' E 121°27'0 0.0
2017-Nov-28 21:30N 31°36' E 121°27'0 0.0
2017-Nov-28 20:54N 31°36' E 121°27'0 0.0
2017-Nov-28 20:30N 31°36' E 121°27'0 0.0
2017-Nov-28 19:36N 31°36' E 121°27'0 0.0
2017-Nov-28 19:29N 31°36' E 121°27'0 0.0
2017-Nov-28 18:06N 31°36' E 121°27'0 0.1
2017-Nov-28 18:00N 31°36' E 121°27'0 0.0
2017-Nov-28 17:27N 31°36' E 121°27'0 0.0
2017-Nov-28 16:57N 31°36' E 121°27'0 0.0
2017-Nov-28 16:21N 31°36' E 121°27'0 0.0
2017-Nov-28 15:54N 31°36' E 121°27'0 0.0
2017-Nov-28 15:00N 31°36' E 121°27'0 0.0
2017-Nov-28 11:18N 31°36' E 121°27'0 0.0
2017-Nov-28 10:57N 31°36' E 121°27'0 0.0
2017-Nov-28 10:18N 31°36' E 121°27'0 0.0
2017-Nov-28 09:12N 31°36' E 121°27'0 0.0
2017-Nov-28 08:53N 31°36' E 121°27'0 0.0
2017-Nov-28 08:18N 31°36' E 121°27'0 0.0
2017-Nov-28 08:00N 31°36' E 121°27'0 0.0
2017-Nov-28 07:30N 31°36' E 121°27'0 0.0
2017-Nov-28 06:42N 31°36' E 121°27'0 0.0
2017-Nov-28 06:30N 31°36' E 121°27'0 0.0
2017-Nov-28 05:06N 31°36' E 121°27'0 0.0
2017-Nov-28 04:30N 31°36' E 121°27'0 0.0
2017-Nov-28 03:18N 31°36' E 121°27'0 0.0
2017-Nov-28 02:54N 31°36' E 121°27'0 0.0
2017-Nov-28 02:30N 31°36' E 121°27'0 0.0
2017-Nov-28 01:57N 31°36' E 121°27'0 0.0
2017-Nov-28 01:30N 31°36' E 121°27'0 0.0
2017-Nov-28 01:00N 31°36' E 121°27'0 0.0
2017-Nov-28 00:24N 31°36' E 121°27'0 0.0
2017-Nov-27 23:48N 31°36' E 121°27'0 0.0
2017-Nov-27 23:30N 31°36' E 121°27'0 0.0
2017-Nov-27 22:54N 31°36' E 121°27'0 0.0
2017-Nov-27 22:12N 31°36' E 121°27'0 0.0
2017-Nov-27 22:00N 31°36' E 121°27'0 0.0
2017-Nov-27 21:30N 31°36' E 121°27'0 0.0
2017-Nov-27 21:00N 31°36' E 121°27'0 0.0
2017-Nov-27 20:30N 31°36' E 121°27'0 0.0
2017-Nov-27 20:00N 31°36' E 121°27'0 0.0
2017-Nov-27 19:26N 31°36' E 121°27'0 0.0
2017-Nov-27 18:54N 31°36' E 121°27'0 0.0
2017-Nov-27 18:24N 31°36' E 121°27'0 0.0
2017-Nov-27 18:00N 31°36' E 121°27'0 0.0
2017-Nov-27 17:30N 31°36' E 121°27'0 0.0
2017-Nov-27 16:59N 31°36' E 121°27'0 0.0
2017-Nov-27 16:30N 31°36' E 121°27'0 0.0
2017-Nov-27 15:57N 31°36' E 121°27'0 0.0
2017-Nov-27 15:24N 31°36' E 121°27'0 0.0
2017-Nov-27 15:00N 31°36' E 121°27'0 0.0
2017-Nov-27 14:30N 31°36' E 121°27'0 0.0
2017-Nov-27 13:51N 31°36' E 121°27'0 0.0
2017-Nov-27 13:24N 31°36' E 121°27'0 0.0
2017-Nov-27 12:57N 31°36' E 121°27'0 0.0
2017-Nov-27 12:30N 31°36' E 121°27'0 0.0
2017-Nov-27 12:00N 31°36' E 121°27'0 0.0
2017-Nov-27 11:30N 31°36' E 121°27'0 0.0
2017-Nov-27 11:00N 31°36' E 121°27'0 0.0
2017-Nov-27 10:24N 31°36' E 121°27'0 0.0
2017-Nov-27 09:54N 31°36' E 121°27'0 0.0
2017-Nov-27 09:24N 31°36' E 121°27'0 0.0
2017-Nov-27 09:00N 31°36' E 121°27'0 0.0
2017-Nov-27 08:30N 31°36' E 121°27'0 0.0
2017-Nov-27 07:48N 31°36' E 121°27'0 0.0
2017-Nov-27 07:30N 31°36' E 121°27'0 0.0
2017-Nov-27 06:54N 31°36' E 121°27'0 0.0
2017-Nov-27 06:30N 31°36' E 121°27'0 0.0
2017-Nov-27 06:00N 31°36' E 121°27'0 0.0
2017-Nov-27 05:30N 31°36' E 121°27'0 0.0
2017-Nov-27 04:54N 31°36' E 121°27'0 0.0
2017-Nov-27 04:27N 31°36' E 121°27'0 0.0
2017-Nov-27 03:48N 31°36' E 121°27'0 0.0
2017-Nov-27 03:30N 31°36' E 121°27'0 0.0
2017-Nov-27 03:00N 31°36' E 121°27'0 0.0
2017-Nov-27 02:30N 31°36' E 121°27'0 0.0
2017-Nov-27 02:00N 31°36' E 121°27'0 0.0
2017-Nov-27 01:30N 31°36' E 121°27'0 0.0
2017-Nov-27 01:00N 31°36' E 121°27'0 0.0
2017-Nov-27 00:30N 31°36' E 121°27'0 0.0
2017-Nov-27 00:00N 31°36' E 121°27'0 0.0
2017-Nov-26 23:30N 31°36' E 121°27'0 0.0
2017-Nov-26 23:00N 31°36' E 121°27'0 0.0
2017-Nov-26 22:30N 31°36' E 121°27'0 0.0
2017-Nov-26 22:00N 31°36' E 121°27'0 0.0
2017-Nov-26 21:30N 31°36' E 121°27'0 0.0
2017-Nov-26 21:00N 31°36' E 121°27'0 0.0
2017-Nov-26 20:30N 31°36' E 121°27'0 0.0
2017-Nov-26 19:51N 31°36' E 121°27'0 0.0
2017-Nov-26 19:27N 31°36' E 121°27'0 0.0
2017-Nov-26 18:57N 31°36' E 121°27'0 0.0
2017-Nov-26 18:27N 31°36' E 121°27'0 0.0
2017-Nov-26 17:51N 31°36' E 121°27'0 0.0
2017-Nov-26 17:30N 31°36' E 121°27'0 0.0
2017-Nov-26 16:57N 31°36' E 121°27'0 0.0
2017-Nov-26 16:30N 31°36' E 121°27'0 0.0
2017-Nov-26 16:00N 31°36' E 121°27'0 0.0
2017-Nov-26 15:30N 31°36' E 121°27'0 0.0
2017-Nov-26 15:00N 31°36' E 121°27'0 0.0
2017-Nov-26 14:30N 31°36' E 121°27'0 0.0
2017-Nov-26 14:00N 31°36' E 121°27'0 0.0
2017-Nov-26 13:30N 31°36' E 121°27'0 0.0
2017-Nov-26 13:00N 31°36' E 121°27'0 0.0
2017-Nov-26 12:30N 31°36' E 121°27'0 0.0
2017-Nov-26 11:57N 31°36' E 121°27'0 0.0
2017-Nov-26 11:30N 31°36' E 121°27'0 0.0
2017-Nov-26 10:57N 31°36' E 121°27'0 0.0
2017-Nov-26 10:30N 31°36' E 121°27'0 0.0
2017-Nov-26 09:54N 31°36' E 121°27'0 0.0
2017-Nov-26 09:27N 31°36' E 121°27'0 0.0
2017-Nov-26 09:00N 31°36' E 121°27'0 0.0
2017-Nov-26 08:27N 31°36' E 121°27'0 0.0
2017-Nov-26 08:00N 31°36' E 121°27'0 0.0
2017-Nov-26 07:27N 31°36' E 121°27'0 0.0
2017-Nov-26 07:00N 31°36' E 121°27'0 0.0
2017-Nov-26 06:30N 31°36' E 121°27'0 0.0
2017-Nov-26 05:57N 31°36' E 121°27'0 0.0
2017-Nov-26 05:30N 31°36' E 121°27'0 0.0
2017-Nov-26 05:00N 31°36' E 121°27'0 0.0
2017-Nov-26 04:30N 31°36' E 121°27'0 0.0
2017-Nov-26 04:00N 31°36' E 121°27'0 0.0
2017-Nov-26 03:30N 31°36' E 121°27'0 0.0
2017-Nov-26 03:00N 31°36' E 121°27'0 0.0
2017-Nov-26 02:27N 31°36' E 121°27'0 0.0
2017-Nov-26 02:00N 31°36' E 121°27'0 0.0
2017-Nov-26 01:27N 31°36' E 121°27'0 0.0
2017-Nov-26 00:54N 31°36' E 121°27'0 0.0
2017-Nov-26 00:30N 31°36' E 121°27'0 0.0
2017-Nov-25 23:59N 31°36' E 121°27'0 0.0
2017-Nov-25 23:30N 31°36' E 121°27'0 0.0
2017-Nov-25 23:00N 31°36' E 121°27'0 0.0
2017-Nov-25 22:30N 31°36' E 121°27'0 0.0
2017-Nov-25 22:00N 31°36' E 121°27'0 0.0
2017-Nov-25 21:30N 31°36' E 121°27'0 0.0
2017-Nov-25 21:00N 31°36' E 121°27'0 0.0
2017-Nov-25 20:30N 31°36' E 121°27'0 0.0
2017-Nov-25 20:00N 31°36' E 121°27'0 0.0
2017-Nov-25 19:24N 31°36' E 121°27'0 0.0
2017-Nov-25 19:00N 31°36' E 121°27'0 0.0
2017-Nov-25 18:30N 31°36' E 121°27'0 0.0
2017-Nov-25 18:00N 31°36' E 121°27'0 0.0
2017-Nov-25 17:30N 31°36' E 121°27'0 0.0
2017-Nov-25 17:00N 31°36' E 121°27'0 0.0
2017-Nov-25 16:30N 31°36' E 121°27'0 0.0
2017-Nov-25 16:00N 31°36' E 121°27'0 0.0
2017-Nov-25 15:27N 31°36' E 121°27'0 0.0
2017-Nov-25 15:00N 31°36' E 121°27'0 0.0
2017-Nov-25 14:30N 31°36' E 121°27'0 0.0
2017-Nov-25 14:00N 31°36' E 121°27'0 0.0
2017-Nov-25 13:30N 31°36' E 121°27'0 0.0
2017-Nov-25 12:54N 31°36' E 121°27'0 0.0
2017-Nov-25 12:30N 31°36' E 121°27'0 0.0
2017-Nov-25 12:00N 31°36' E 121°27'0 0.0
2017-Nov-25 11:30N 31°36' E 121°27'0 0.0
2017-Nov-25 11:00N 31°36' E 121°27'0 0.0
2017-Nov-25 10:30N 31°36' E 121°27'0 0.0
2017-Nov-25 10:00N 31°36' E 121°27'0 0.0
2017-Nov-25 09:27N 31°36' E 121°27'0 0.0
2017-Nov-25 09:00N 31°36' E 121°27'0 0.0
2017-Nov-25 08:27N 31°36' E 121°27'0 0.0
2017-Nov-25 08:00N 31°36' E 121°27'0 0.0
2017-Nov-25 07:27N 31°36' E 121°27'0 0.0
2017-Nov-25 07:00N 31°36' E 121°27'0 0.0
2017-Nov-25 06:30N 31°36' E 121°27'0 0.0
2017-Nov-25 06:00N 31°36' E 121°27'0 0.0
2017-Nov-25 05:30N 31°36' E 121°27'0 0.0
2017-Nov-25 05:00N 31°36' E 121°27'0 0.0
2017-Nov-25 04:30N 31°36' E 121°27'0 0.0
2017-Nov-25 04:00N 31°36' E 121°27'0 0.0
2017-Nov-25 03:30N 31°36' E 121°27'0 0.0
2017-Nov-25 03:00N 31°36' E 121°27'0 0.0
2017-Nov-25 02:30N 31°36' E 121°27'0 0.0
2017-Nov-25 01:59N 31°36' E 121°27'0 0.0
2017-Nov-25 01:30N 31°36' E 121°27'0 0.0
2017-Nov-25 01:00N 31°36' E 121°27'0 0.0
2017-Nov-25 00:30N 31°36' E 121°27'0 0.0
2017-Nov-24 23:57N 31°36' E 121°27'0 0.0
2017-Nov-24 23:30N 31°36' E 121°27'0 0.0
2017-Nov-24 23:00N 31°36' E 121°27'0 0.0
2017-Nov-24 22:30N 31°36' E 121°27'0 0.0
2017-Nov-24 21:59N 31°36' E 121°27'0 0.0
2017-Nov-24 21:27N 31°36' E 121°27'0 0.0
2017-Nov-24 20:51N 31°36' E 121°27'0 0.0
2017-Nov-24 20:30N 31°36' E 121°27'0 0.0
2017-Nov-24 20:00N 31°36' E 121°27'0 0.0
2017-Nov-24 19:30N 31°36' E 121°27'0 0.0
2017-Nov-24 18:57N 31°36' E 121°27'0 0.0
2017-Nov-24 18:27N 31°36' E 121°27'0 0.0
2017-Nov-24 18:00N 31°36' E 121°27'0 0.0
2017-Nov-24 17:30N 31°36' E 121°27'0 0.0
2017-Nov-24 16:56N 31°36' E 121°27'0 0.0
2017-Nov-24 16:29N 31°36' E 121°27'0 0.0
2017-Nov-24 16:00N 31°36' E 121°27'0 0.0
2017-Nov-24 15:30N 31°36' E 121°27'0 0.0
2017-Nov-24 15:00N 31°36' E 121°27'0 0.0
2017-Nov-24 14:24N 31°36' E 121°27'0 0.0
2017-Nov-24 14:00N 31°36' E 121°27'0 0.0
2017-Nov-24 13:27N 31°36' E 121°27'0 0.0
2017-Nov-24 12:57N 31°36' E 121°27'0 0.0
2017-Nov-24 12:27N 31°36' E 121°27'0 0.0
2017-Nov-24 12:00N 31°36' E 121°27'0 0.0
2017-Nov-24 11:30N 31°36' E 121°27'0 0.0
2017-Nov-24 11:00N 31°36' E 121°27'0 0.0
2017-Nov-24 10:27N 31°36' E 121°27'0 0.0
2017-Nov-24 10:00N 31°36' E 121°27'0 0.0
2017-Nov-24 09:27N 31°36' E 121°27'0 0.0
2017-Nov-24 08:57N 31°36' E 121°27'0 0.0
2017-Nov-24 08:30N 31°36' E 121°27'  
Track history (hours):
 
Tides and Currents Weather Stations Pressure Air Temp Water Temp Dewpoint Dewpoint Depression Visibility Wind Speed Wind Dir Waves Ship Positions

Karei

Last reported at 2017-Dec-04 08:20 UTC. Time now 2017-Dec-13 20:54 UTC.
Position N 31°01' E 122°25'.
Warning: this ship's position is 9 days out of date.

Length 228 m; draft 8.9 m.

Type: Tanker. MMSI: 538003823.

Date/timePositionNaut miles runAvg speedWind from/ knotsBaromVisibWave heightAir tempDewpointWater temp
2017-Dec-04 08:20N 31°01' E 122°25'413.5
2017-Dec-04 08:01N 31°02' E 122°20'713.4
2017-Dec-04 07:28N 31°03' E 122°12'714.0
2017-Dec-04 07:00N 31°04' E 122°04'713.0
2017-Dec-04 06:30N 31°07' E 121°57'914.0
2017-Dec-04 05:53N 31°12' E 121°49'1711.0
2017-Dec-04 04:18N 31°24' E 121°34'4 7.4
2017-Dec-04 03:46N 31°26' E 121°30'4 9.6
2017-Dec-04 03:24N 31°28' E 121°27'3 6.5
2017-Dec-04 02:59N 31°31' E 121°26'510.7
2017-Dec-04 02:30N 31°30' E 121°32'3 4.7
2017-Dec-04 01:50N 31°31' E 121°36'3 9.9
2017-Dec-04 01:30N 31°32' E 121°33'510.6
2017-Dec-04 01:00N 31°35' E 121°27'1 1.1
2017-Dec-04 00:30N 31°36' E 121°27'0 0.0
2017-Dec-04 00:00N 31°36' E 121°27'0 0.0
2017-Dec-03 23:21N 31°36' E 121°27'0 0.0
2017-Dec-03 23:00N 31°36' E 121°27'0 0.0
2017-Dec-03 22:27N 31°36' E 121°27'0 0.0
2017-Dec-03 21:57N 31°36' E 121°27'0 0.0
2017-Dec-03 21:27N 31°36' E 121°27'0 0.0
2017-Dec-03 20:57N 31°36' E 121°27'0 0.0
2017-Dec-03 20:27N 31°36' E 121°27'0 0.0
2017-Dec-03 19:57N 31°36' E 121°27'0 0.0
2017-Dec-03 19:15N 31°36' E 121°27'0 0.0
2017-Dec-03 18:57N 31°36' E 121°27'0 0.0
2017-Dec-03 18:27N 31°36' E 121°27'0 0.0
2017-Dec-03 17:57N 31°36' E 121°27'0 0.0
2017-Dec-03 17:09N 31°36' E 121°27'0 0.0
2017-Dec-03 17:00N 31°36' E 121°27'0 0.0
2017-Dec-03 16:21N 31°36' E 121°27'0 0.0
2017-Dec-03 15:57N 31°36' E 121°27'0 0.0
2017-Dec-03 15:30N 31°36' E 121°27'0 0.0
2017-Dec-03 14:45N 31°36' E 121°27'0 0.0
2017-Dec-03 14:12N 31°36' E 121°27'0 0.0
2017-Dec-03 13:51N 31°36' E 121°27'0 0.0
2017-Dec-03 13:27N 31°36' E 121°27'0 0.0
2017-Dec-03 12:57N 31°36' E 121°27'0 0.0
2017-Dec-03 12:30N 31°36' E 121°27'0 0.0
2017-Dec-03 11:51N 31°36' E 121°27'0 0.0
2017-Dec-03 11:30N 31°36' E 121°27'0 0.0
2017-Dec-03 10:57N 31°36' E 121°27'0 0.0
2017-Dec-03 10:30N 31°36' E 121°27'0 0.0
2017-Dec-03 09:57N 31°36' E 121°27'0 0.0
2017-Dec-03 09:27N 31°36' E 121°27'0 0.0
2017-Dec-03 08:57N 31°36' E 121°27'0 0.0
2017-Dec-03 08:03N 31°36' E 121°27'0 0.0
2017-Dec-03 08:00N 31°36' E 121°27'0 0.0
2017-Dec-03 07:27N 31°36' E 121°27'0 0.0
2017-Dec-03 06:51N 31°36' E 121°27'0 0.0
2017-Dec-03 06:27N 31°36' E 121°27'0 0.0
2017-Dec-03 05:57N 31°36' E 121°27'0 0.0
2017-Dec-03 05:27N 31°36' E 121°27'0 0.0
2017-Dec-03 04:51N 31°36' E 121°27'0 0.0
2017-Dec-03 04:27N 31°36' E 121°27'0 0.0
2017-Dec-03 03:57N 31°36' E 121°27'0 0.0
2017-Dec-03 03:21N 31°36' E 121°27'0 0.0
2017-Dec-03 02:57N 31°36' E 121°27'0 0.0
2017-Dec-03 02:21N 31°36' E 121°27'0 0.0
2017-Dec-03 01:57N 31°36' E 121°27'0 0.0
2017-Dec-03 01:27N 31°36' E 121°27'0 0.0
2017-Dec-03 01:00N 31°36' E 121°27'0 0.0
2017-Dec-03 00:27N 31°36' E 121°27'0 0.0
2017-Dec-02 23:57N 31°36' E 121°27'0 0.0
2017-Dec-02 23:30N 31°36' E 121°27'0 0.0
2017-Dec-02 22:56N 31°36' E 121°27'0 0.0
2017-Dec-02 22:27N 31°36' E 121°27'0 0.0
2017-Dec-02 21:27N 31°36' E 121°27'0 0.0
2017-Dec-02 20:51N 31°36' E 121°27'0 0.0
2017-Dec-02 20:27N 31°36' E 121°27'0 0.0
2017-Dec-02 19:57N 31°36' E 121°27'0 0.0
2017-Dec-02 19:27N 31°36' E 121°27'0 0.0
2017-Dec-02 18:51N 31°36' E 121°27'0 0.0
2017-Dec-02 18:29N 31°36' E 121°27'0 0.0
2017-Dec-02 17:54N 31°36' E 121°27'0 0.0
2017-Dec-02 17:27N 31°36' E 121°27'0 0.0
2017-Dec-02 17:00N 31°36' E 121°27'0 0.0
2017-Dec-02 16:30N 31°36' E 121°27'0 0.0
2017-Dec-02 15:59N 31°36' E 121°27'0 0.0
2017-Dec-02 15:24N 31°36' E 121°27'0 0.0
2017-Dec-02 14:59N 31°36' E 121°27'0 0.0
2017-Dec-02 14:27N 31°36' E 121°27'0 0.0
2017-Dec-02 14:00N 31°36' E 121°27'0 0.0
2017-Dec-02 13:21N 31°36' E 121°27'0 0.0
2017-Dec-02 12:50N 31°36' E 121°27'0 0.0
2017-Dec-02 12:30N 31°36' E 121°27'0 0.0
2017-Dec-02 12:00N 31°36' E 121°27'0 0.0
2017-Dec-02 11:27N 31°36' E 121°27'0 0.0
2017-Dec-02 10:39N 31°36' E 121°27'0 0.0
2017-Dec-02 10:30N 31°36' E 121°27'0 0.0
2017-Dec-02 09:11N 31°36' E 121°27'0 0.0
2017-Dec-02 08:50N 31°36' E 121°27'0 0.0
2017-Dec-02 08:21N 31°36' E 121°27'0 0.0
2017-Dec-02 07:59N 31°36' E 121°27'0 0.0
2017-Dec-02 07:21N 31°36' E 121°27'0 0.0
2017-Dec-02 06:57N 31°36' E 121°27'0 0.0
2017-Dec-02 06:27N 31°36' E 121°27'0 0.0
2017-Dec-02 05:57N 31°36' E 121°27'0 0.0
2017-Dec-02 05:29N 31°36' E 121°27'0 0.0
2017-Dec-02 04:56N 31°36' E 121°27'0 0.0
2017-Dec-02 04:27N 31°36' E 121°27'0 0.0
2017-Dec-02 03:57N 31°36' E 121°27'0 0.0
2017-Dec-02 03:27N 31°36' E 121°27'0 0.0
2017-Dec-02 02:57N 31°36' E 121°27'0 0.0
2017-Dec-02 02:27N 31°36' E 121°27'0 0.0
2017-Dec-02 01:57N 31°36' E 121°27'0 0.0
2017-Dec-02 01:09N 31°36' E 121°27'0 0.0
2017-Dec-02 01:00N 31°36' E 121°27'0 0.0
2017-Dec-02 00:30N 31°36' E 121°27'0 0.0
2017-Dec-02 00:00N 31°36' E 121°27'0 0.0
2017-Dec-01 23:27N 31°36' E 121°27'0 0.0
2017-Dec-01 22:57N 31°36' E 121°27'0 0.0
2017-Dec-01 22:30N 31°36' E 121°27'0 0.0
2017-Dec-01 21:53N 31°36' E 121°27'0 0.0
2017-Dec-01 21:27N 31°36' E 121°27'0 0.0
2017-Dec-01 20:57N 31°36' E 121°27'0 0.0
2017-Dec-01 20:23N 31°36' E 121°27'0 0.0
2017-Dec-01 19:59N 31°36' E 121°27'0 0.0
2017-Dec-01 19:24N 31°36' E 121°27'0 0.0
2017-Dec-01 18:24N 31°36' E 121°27'0 0.0
2017-Dec-01 17:54N 31°36' E 121°27'0 0.0
2017-Dec-01 17:30N 31°36' E 121°27'0 0.0
2017-Dec-01 17:00N 31°36' E 121°27'0 0.0
2017-Dec-01 16:30N 31°36' E 121°27'0 0.0
2017-Dec-01 15:57N 31°36' E 121°27'0 0.0
2017-Dec-01 15:00N 31°36' E 121°27'0 0.0
2017-Dec-01 14:24N 31°36' E 121°27'0 0.0
2017-Dec-01 13:51N 31°36' E 121°27'0 0.0
2017-Dec-01 13:30N 31°36' E 121°27'0 0.0
2017-Dec-01 12:54N 31°36' E 121°27'0 0.0
2017-Dec-01 12:00N 31°36' E 121°27'0 0.0
2017-Dec-01 11:24N 31°36' E 121°27'0 0.0
2017-Dec-01 10:48N 31°36' E 121°27'0 0.0
2017-Dec-01 10:15N 31°36' E 121°27'0 0.0
2017-Dec-01 09:51N 31°36' E 121°27'0 0.0
2017-Dec-01 09:30N 31°36' E 121°27'0 0.0
2017-Dec-01 09:00N 31°36' E 121°27'0 0.0
2017-Dec-01 08:24N 31°36' E 121°27'0 0.0
2017-Dec-01 07:57N 31°36' E 121°27'0 0.0
2017-Dec-01 07:21N 31°36' E 121°27'0 0.0
2017-Dec-01 06:57N 31°36' E 121°27'0 0.0
2017-Dec-01 06:30N 31°36' E 121°27'0 0.0
2017-Dec-01 06:00N 31°36' E 121°27'0 0.0
2017-Dec-01 05:27N 31°36' E 121°27'0 0.0
2017-Dec-01 05:00N 31°36' E 121°27'0 0.0
2017-Dec-01 04:27N 31°36' E 121°27'0 0.0
2017-Dec-01 03:45N 31°36' E 121°27'0 0.0
2017-Dec-01 03:30N 31°36' E 121°27'0 0.0
2017-Dec-01 03:00N 31°36' E 121°27'0 0.0
2017-Dec-01 02:27N 31°36' E 121°27'0 0.0
2017-Dec-01 01:57N 31°36' E 121°27'0 0.0
2017-Dec-01 01:12N 31°36' E 121°27'0 0.0
2017-Dec-01 00:57N 31°36' E 121°27'0 0.0
2017-Dec-01 00:30N 31°36' E 121°27'0 0.0
2017-Dec-01 00:00N 31°36' E 121°27'0 0.0
2017-Nov-30 23:21N 31°36' E 121°27'0 0.0
2017-Nov-30 22:51N 31°36' E 121°27'0 0.0
2017-Nov-30 22:21N 31°36' E 121°27'0 0.0
2017-Nov-30 21:57N 31°36' E 121°27'0 0.0
2017-Nov-30 21:27N 31°36' E 121°27'0 0.0
2017-Nov-30 21:00N 31°36' E 121°27'0 0.0
2017-Nov-30 20:18N 31°36' E 121°27'0 0.0
2017-Nov-30 19:59N 31°36' E 121°27'0 0.0
2017-Nov-30 19:21N 31°36' E 121°27'0 0.0
2017-Nov-30 18:18N 31°36' E 121°27'0 0.0
2017-Nov-30 18:00N 31°36' E 121°27'0 0.0
2017-Nov-30 17:27N 31°36' E 121°27'0 0.0
2017-Nov-30 17:00N 31°36' E 121°27'0 0.0
2017-Nov-30 16:24N 31°36' E 121°27'0 0.0
2017-Nov-30 15:54N 31°36' E 121°27'0 0.0
2017-Nov-30 15:12N 31°36' E 121°27'0 0.0
2017-Nov-30 15:00N 31°36' E 121°27'0 0.0
2017-Nov-30 14:30N 31°36' E 121°27'0 0.0
2017-Nov-30 13:57N 31°36' E 121°27'0 0.0
2017-Nov-30 13:30N 31°36' E 121°27'0 0.0
2017-Nov-30 12:54N 31°36' E 121°27'0 0.0
2017-Nov-30 12:27N 31°36' E 121°27'0 0.0
2017-Nov-30 11:48N 31°36' E 121°27'0 0.0
2017-Nov-30 11:27N 31°36' E 121°27'0 0.0
2017-Nov-30 11:00N 31°36' E 121°27'0 0.0
2017-Nov-30 10:03N 31°36' E 121°27'0 0.0
2017-Nov-30 10:00N 31°36' E 121°27'0 0.0
2017-Nov-30 09:30N 31°36' E 121°27'0 0.0
2017-Nov-30 09:00N 31°36' E 121°27'0 0.0
2017-Nov-30 08:24N 31°36' E 121°27'0 0.0
2017-Nov-30 07:57N 31°36' E 121°27'0 0.0
2017-Nov-30 07:15N 31°36' E 121°27'0 0.0
2017-Nov-30 06:51N 31°36' E 121°27'0 0.0
2017-Nov-30 06:27N 31°36' E 121°27'0 0.0
2017-Nov-30 05:42N 31°36' E 121°27'0 0.0
2017-Nov-30 05:30N 31°36' E 121°27'0 0.0
2017-Nov-30 04:57N 31°36' E 121°27'0 0.0
2017-Nov-30 04:21N 31°36' E 121°27'0 0.0
2017-Nov-30 03:59N 31°36' E 121°27'0 0.0
2017-Nov-30 03:30N 31°36' E 121°27'0 0.0
2017-Nov-30 02:54N 31°36' E 121°27'0 0.0
2017-Nov-30 02:30N 31°36' E 121°27'0 0.0
2017-Nov-30 01:59N 31°36' E 121°27'0 0.0
2017-Nov-30 01:24N 31°36' E 121°27'0 0.0
2017-Nov-30 00:48N 31°36' E 121°27'0 0.0
2017-Nov-30 00:24N 31°36' E 121°27'0 0.0
2017-Nov-29 23:56N 31°36' E 121°27'0 0.0
2017-Nov-29 23:27N 31°36' E 121°27'0 0.0
2017-Nov-29 22:57N 31°36' E 121°27'0 0.0
2017-Nov-29 22:30N 31°36' E 121°27'0 0.0
2017-Nov-29 21:57N 31°36' E 121°27'0 0.0
2017-Nov-29 21:27N 31°36' E 121°27'0 0.0
2017-Nov-29 20:57N 31°36' E 121°27'0 0.0
2017-Nov-29 20:27N 31°36' E 121°27'0 0.0
2017-Nov-29 19:45N 31°36' E 121°27'0 0.0
2017-Nov-29 19:30N 31°36' E 121°27'0 0.0
2017-Nov-29 18:45N 31°36' E 121°27'0 0.0
2017-Nov-29 18:27N 31°36' E 121°27'0 0.0
2017-Nov-29 17:57N 31°36' E 121°27'0 0.0
2017-Nov-29 17:27N 31°36' E 121°27'0 0.0
2017-Nov-29 16:54N 31°36' E 121°27'0 0.0
2017-Nov-29 16:27N 31°36' E 121°27'0 0.0
2017-Nov-29 15:48N 31°36' E 121°27'0 0.0
2017-Nov-29 15:21N 31°36' E 121°27'0 0.0
2017-Nov-29 15:00N 31°36' E 121°27'0 0.0
2017-Nov-29 14:30N 31°36' E 121°27'0 0.0
2017-Nov-29 13:51N 31°36' E 121°27'0 0.0
2017-Nov-29 13:30N 31°36' E 121°27'0 0.0
2017-Nov-29 12:57N 31°36' E 121°27'0 0.0
2017-Nov-29 12:03N 31°36' E 121°27'0 0.1
2017-Nov-29 11:57N 31°36' E 121°27'0 0.0
2017-Nov-29 11:26N 31°36' E 121°27'0 0.0
2017-Nov-29 10:51N 31°36' E 121°27'0 0.0
2017-Nov-29 10:21N 31°36' E 121°27'0 0.0
2017-Nov-29 09:57N 31°36' E 121°27'0 0.0
2017-Nov-29 09:15N 31°36' E 121°27'0 0.0
2017-Nov-29 08:57N 31°36' E 121°27'0 0.0
2017-Nov-29 08:30N 31°36' E 121°27'0 0.0
2017-Nov-29 07:57N 31°36' E 121°27'0 0.0
2017-Nov-29 07:09N 31°36' E 121°27'0 0.0
2017-Nov-29 06:45N 31°36' E 121°27'0 0.0
2017-Nov-29 06:21N 31°36' E 121°27'0 0.0
2017-Nov-29 05:56N 31°36' E 121°27'0 0.0
2017-Nov-29 05:09N 31°36' E 121°27'0 0.0
2017-Nov-29 04:57N 31°36' E 121°27'0 0.0
2017-Nov-29 04:27N 31°36' E 121°27'0 0.0
2017-Nov-29 03:51N 31°36' E 121°27'0 0.0
2017-Nov-29 03:27N 31°36' E 121°27'0 0.0
2017-Nov-29 03:00N 31°36' E 121°27'0 0.0
2017-Nov-29 02:27N 31°36' E 121°27'0 0.0
2017-Nov-29 01:57N 31°36' E 121°27'0 0.0
2017-Nov-29 01:30N 31°36' E 121°27'0 0.0
2017-Nov-29 00:51N 31°36' E 121°27'0 0.0
2017-Nov-29 00:30N 31°36' E 121°27'0 0.0
2017-Nov-28 23:50N 31°36' E 121°27'0 0.0
2017-Nov-28 23:30N 31°36' E 121°27'0 0.0
2017-Nov-28 23:00N 31°36' E 121°27'0 0.0
2017-Nov-28 22:24N 31°36' E 121°27'0 0.0
2017-Nov-28 22:00N 31°36' E 121°27'0 0.0
2017-Nov-28 21:30N 31°36' E 121°27'0 0.0
2017-Nov-28 20:54N 31°36' E 121°27'0 0.0
2017-Nov-28 20:30N 31°36' E 121°27'0 0.0
2017-Nov-28 19:36N 31°36' E 121°27'0 0.0
2017-Nov-28 19:29N 31°36' E 121°27'0 0.0
2017-Nov-28 18:06N 31°36' E 121°27'0 0.1
2017-Nov-28 18:00N 31°36' E 121°27'0 0.0
2017-Nov-28 17:27N 31°36' E 121°27'0 0.0
2017-Nov-28 16:57N 31°36' E 121°27'0 0.0
2017-Nov-28 16:21N 31°36' E 121°27'0 0.0
2017-Nov-28 15:54N 31°36' E 121°27'0 0.0
2017-Nov-28 15:00N 31°36' E 121°27'0 0.0
2017-Nov-28 11:18N 31°36' E 121°27'0 0.0
2017-Nov-28 10:57N 31°36' E 121°27'0 0.0
2017-Nov-28 10:18N 31°36' E 121°27'0 0.0
2017-Nov-28 09:12N 31°36' E 121°27'0 0.0
2017-Nov-28 08:53N 31°36' E 121°27'0 0.0
2017-Nov-28 08:18N 31°36' E 121°27'0 0.0
2017-Nov-28 08:00N 31°36' E 121°27'0 0.0
2017-Nov-28 07:30N 31°36' E 121°27'0 0.0
2017-Nov-28 06:42N 31°36' E 121°27'0 0.0
2017-Nov-28 06:30N 31°36' E 121°27'0 0.0
2017-Nov-28 05:06N 31°36' E 121°27'0 0.0
2017-Nov-28 04:30N 31°36' E 121°27'0 0.0
2017-Nov-28 03:18N 31°36' E 121°27'0 0.0
2017-Nov-28 02:54N 31°36' E 121°27'0 0.0
2017-Nov-28 02:30N 31°36' E 121°27'0 0.0
2017-Nov-28 01:57N 31°36' E 121°27'0 0.0
2017-Nov-28 01:30N 31°36' E 121°27'0 0.0
2017-Nov-28 01:00N 31°36' E 121°27'0 0.0
2017-Nov-28 00:24N 31°36' E 121°27'0 0.0
2017-Nov-27 23:48N 31°36' E 121°27'0 0.0
2017-Nov-27 23:30N 31°36' E 121°27'0 0.0
2017-Nov-27 22:54N 31°36' E 121°27'0 0.0
2017-Nov-27 22:12N 31°36' E 121°27'0 0.0
2017-Nov-27 22:00N 31°36' E 121°27'0 0.0
2017-Nov-27 21:30N 31°36' E 121°27'0 0.0
2017-Nov-27 21:00N 31°36' E 121°27'0 0.0
2017-Nov-27 20:30N 31°36' E 121°27'0 0.0
2017-Nov-27 20:00N 31°36' E 121°27'0 0.0
2017-Nov-27 19:26N 31°36' E 121°27'0 0.0
2017-Nov-27 18:54N 31°36' E 121°27'0 0.0
2017-Nov-27 18:24N 31°36' E 121°27'0 0.0
2017-Nov-27 18:00N 31°36' E 121°27'0 0.0
2017-Nov-27 17:30N 31°36' E 121°27'0 0.0
2017-Nov-27 16:59N 31°36' E 121°27'0 0.0
2017-Nov-27 16:30N 31°36' E 121°27'0 0.0
2017-Nov-27 15:57N 31°36' E 121°27'0 0.0
2017-Nov-27 15:24N 31°36' E 121°27'0 0.0
2017-Nov-27 15:00N 31°36' E 121°27'0 0.0
2017-Nov-27 14:30N 31°36' E 121°27'0 0.0
2017-Nov-27 13:51N 31°36' E 121°27'0 0.0
2017-Nov-27 13:24N 31°36' E 121°27'0 0.0
2017-Nov-27 12:57N 31°36' E 121°27'0 0.0
2017-Nov-27 12:30N 31°36' E 121°27'0 0.0
2017-Nov-27 12:00N 31°36' E 121°27'0 0.0
2017-Nov-27 11:30N 31°36' E 121°27'0 0.0
2017-Nov-27 11:00N 31°36' E 121°27'0 0.0
2017-Nov-27 10:24N 31°36' E 121°27'0 0.0
2017-Nov-27 09:54N 31°36' E 121°27'0 0.0
2017-Nov-27 09:24N 31°36' E 121°27'0 0.0
2017-Nov-27 09:00N 31°36' E 121°27'0 0.0
2017-Nov-27 08:30N 31°36' E 121°27'0 0.0
2017-Nov-27 07:48N 31°36' E 121°27'0 0.0
2017-Nov-27 07:30N 31°36' E 121°27'0 0.0
2017-Nov-27 06:54N 31°36' E 121°27'0 0.0
2017-Nov-27 06:30N 31°36' E 121°27'0 0.0
2017-Nov-27 06:00N 31°36' E 121°27'0 0.0
2017-Nov-27 05:30N 31°36' E 121°27'0 0.0
2017-Nov-27 04:54N 31°36' E 121°27'0 0.0
2017-Nov-27 04:27N 31°36' E 121°27'0 0.0
2017-Nov-27 03:48N 31°36' E 121°27'0 0.0
2017-Nov-27 03:30N 31°36' E 121°27'0 0.0
2017-Nov-27 03:00N 31°36' E 121°27'0 0.0
2017-Nov-27 02:30N 31°36' E 121°27'0 0.0
2017-Nov-27 02:00N 31°36' E 121°27'0 0.0
2017-Nov-27 01:30N 31°36' E 121°27'0 0.0
2017-Nov-27 01:00N 31°36' E 121°27'0 0.0
2017-Nov-27 00:30N 31°36' E 121°27'0 0.0
2017-Nov-27 00:00N 31°36' E 121°27'0 0.0
2017-Nov-26 23:30N 31°36' E 121°27'0 0.0
2017-Nov-26 23:00N 31°36' E 121°27'0 0.0
2017-Nov-26 22:30N 31°36' E 121°27'0 0.0
2017-Nov-26 22:00N 31°36' E 121°27'0 0.0
2017-Nov-26 21:30N 31°36' E 121°27'0 0.0
2017-Nov-26 21:00N 31°36' E 121°27'0 0.0
2017-Nov-26 20:30N 31°36' E 121°27'0 0.0
2017-Nov-26 19:51N 31°36' E 121°27'0 0.0
2017-Nov-26 19:27N 31°36' E 121°27'0 0.0
2017-Nov-26 18:57N 31°36' E 121°27'0 0.0
2017-Nov-26 18:27N 31°36' E 121°27'0 0.0
2017-Nov-26 17:51N 31°36' E 121°27'0 0.0
2017-Nov-26 17:30N 31°36' E 121°27'0 0.0
2017-Nov-26 16:57N 31°36' E 121°27'0 0.0
2017-Nov-26 16:30N 31°36' E 121°27'0 0.0
2017-Nov-26 16:00N 31°36' E 121°27'0 0.0
2017-Nov-26 15:30N 31°36' E 121°27'0 0.0
2017-Nov-26 15:00N 31°36' E 121°27'0 0.0
2017-Nov-26 14:30N 31°36' E 121°27'0 0.0
2017-Nov-26 14:00N 31°36' E 121°27'0 0.0
2017-Nov-26 13:30N 31°36' E 121°27'0 0.0
2017-Nov-26 13:00N 31°36' E 121°27'0 0.0
2017-Nov-26 12:30N 31°36' E 121°27'0 0.0
2017-Nov-26 11:57N 31°36' E 121°27'0 0.0
2017-Nov-26 11:30N 31°36' E 121°27'0 0.0
2017-Nov-26 10:57N 31°36' E 121°27'0 0.0
2017-Nov-26 10:30N 31°36' E 121°27'0 0.0
2017-Nov-26 09:54N 31°36' E 121°27'0 0.0
2017-Nov-26 09:27N 31°36' E 121°27'0 0.0
2017-Nov-26 09:00N 31°36' E 121°27'0 0.0
2017-Nov-26 08:27N 31°36' E 121°27'0 0.0
2017-Nov-26 08:00N 31°36' E 121°27'0 0.0
2017-Nov-26 07:27N 31°36' E 121°27'0 0.0
2017-Nov-26 07:00N 31°36' E 121°27'0 0.0
2017-Nov-26 06:30N 31°36' E 121°27'0 0.0
2017-Nov-26 05:57N 31°36' E 121°27'0 0.0
2017-Nov-26 05:30N 31°36' E 121°27'0 0.0
2017-Nov-26 05:00N 31°36' E 121°27'0 0.0
2017-Nov-26 04:30N 31°36' E 121°27'0 0.0
2017-Nov-26 04:00N 31°36' E 121°27'0 0.0
2017-Nov-26 03:30N 31°36' E 121°27'0 0.0
2017-Nov-26 03:00N 31°36' E 121°27'0 0.0
2017-Nov-26 02:27N 31°36' E 121°27'0 0.0
2017-Nov-26 02:00N 31°36' E 121°27'0 0.0
2017-Nov-26 01:27N 31°36' E 121°27'0 0.0
2017-Nov-26 00:54N 31°36' E 121°27'0 0.0
2017-Nov-26 00:30N 31°36' E 121°27'0 0.0
2017-Nov-25 23:59N 31°36' E 121°27'0 0.0
2017-Nov-25 23:30N 31°36' E 121°27'0 0.0
2017-Nov-25 23:00N 31°36' E 121°27'0 0.0
2017-Nov-25 22:30N 31°36' E 121°27'0 0.0
2017-Nov-25 22:00N 31°36' E 121°27'0 0.0
2017-Nov-25 21:30N 31°36' E 121°27'0 0.0
2017-Nov-25 21:00N 31°36' E 121°27'0 0.0
2017-Nov-25 20:30N 31°36' E 121°27'0 0.0
2017-Nov-25 20:00N 31°36' E 121°27'0 0.0
2017-Nov-25 19:24N 31°36' E 121°27'0 0.0
2017-Nov-25 19:00N 31°36' E 121°27'0 0.0
2017-Nov-25 18:30N 31°36' E 121°27'0 0.0
2017-Nov-25 18:00N 31°36' E 121°27'0 0.0
2017-Nov-25 17:30N 31°36' E 121°27'0 0.0
2017-Nov-25 17:00N 31°36' E 121°27'0 0.0
2017-Nov-25 16:30N 31°36' E 121°27'0 0.0
2017-Nov-25 16:00N 31°36' E 121°27'0 0.0
2017-Nov-25 15:27N 31°36' E 121°27'0 0.0
2017-Nov-25 15:00N 31°36' E 121°27'0 0.0
2017-Nov-25 14:30N 31°36' E 121°27'0 0.0
2017-Nov-25 14:00N 31°36' E 121°27'0 0.0
2017-Nov-25 13:30N 31°36' E 121°27'0 0.0
2017-Nov-25 12:54N 31°36' E 121°27'0 0.0
2017-Nov-25 12:30N 31°36' E 121°27'0 0.0
2017-Nov-25 12:00N 31°36' E 121°27'0 0.0
2017-Nov-25 11:30N 31°36' E 121°27'0 0.0
2017-Nov-25 11:00N 31°36' E 121°27'0 0.0
2017-Nov-25 10:30N 31°36' E 121°27'0 0.0
2017-Nov-25 10:00N 31°36' E 121°27'0 0.0
2017-Nov-25 09:27N 31°36' E 121°27'0 0.0
2017-Nov-25 09:00N 31°36' E 121°27'0 0.0
2017-Nov-25 08:27N 31°36' E 121°27'0 0.0
2017-Nov-25 08:00N 31°36' E 121°27'0 0.0
2017-Nov-25 07:27N 31°36' E 121°27'0 0.0
2017-Nov-25 07:00N 31°36' E 121°27'0 0.0
2017-Nov-25 06:30N 31°36' E 121°27'0 0.0
2017-Nov-25 06:00N 31°36' E 121°27'0 0.0
2017-Nov-25 05:30N 31°36' E 121°27'0 0.0
2017-Nov-25 05:00N 31°36' E 121°27'0 0.0
2017-Nov-25 04:30N 31°36' E 121°27'0 0.0
2017-Nov-25 04:00N 31°36' E 121°27'0 0.0
2017-Nov-25 03:30N 31°36' E 121°27'0 0.0
2017-Nov-25 03:00N 31°36' E 121°27'0 0.0
2017-Nov-25 02:30N 31°36' E 121°27'0 0.0
2017-Nov-25 01:59N 31°36' E 121°27'0 0.0
2017-Nov-25 01:30N 31°36' E 121°27'0 0.0
2017-Nov-25 01:00N 31°36' E 121°27'0 0.0
2017-Nov-25 00:30N 31°36' E 121°27'0 0.0
2017-Nov-24 23:57N 31°36' E 121°27'0 0.0
2017-Nov-24 23:30N 31°36' E 121°27'0 0.0
2017-Nov-24 23:00N 31°36' E 121°27'0 0.0
2017-Nov-24 22:30N 31°36' E 121°27'0 0.0
2017-Nov-24 21:59N 31°36' E 121°27'0 0.0
2017-Nov-24 21:27N 31°36' E 121°27'0 0.0
2017-Nov-24 20:51N 31°36' E 121°27'0 0.0
2017-Nov-24 20:30N 31°36' E 121°27'0 0.0
2017-Nov-24 20:00N 31°36' E 121°27'0 0.0
2017-Nov-24 19:30N 31°36' E 121°27'0 0.0
2017-Nov-24 18:57N 31°36' E 121°27'0 0.0
2017-Nov-24 18:27N 31°36' E 121°27'0 0.0
2017-Nov-24 18:00N 31°36' E 121°27'0 0.0
2017-Nov-24 17:30N 31°36' E 121°27'0 0.0
2017-Nov-24 16:56N 31°36' E 121°27'0 0.0
2017-Nov-24 16:29N 31°36' E 121°27'0 0.0
2017-Nov-24 16:00N 31°36' E 121°27'0 0.0
2017-Nov-24 15:30N 31°36' E 121°27'0 0.0
2017-Nov-24 15:00N 31°36' E 121°27'0 0.0
2017-Nov-24 14:24N 31°36' E 121°27'0 0.0
2017-Nov-24 14:00N 31°36' E 121°27'0 0.0
2017-Nov-24 13:27N 31°36' E 121°27'0 0.0
2017-Nov-24 12:57N 31°36' E 121°27'0 0.0
2017-Nov-24 12:27N 31°36' E 121°27'0 0.0
2017-Nov-24 12:00N 31°36' E 121°27'0 0.0
2017-Nov-24 11:30N 31°36' E 121°27'0 0.0
2017-Nov-24 11:00N 31°36' E 121°27'0 0.0
2017-Nov-24 10:27N 31°36' E 121°27'0 0.0
2017-Nov-24 10:00N 31°36' E 121°27'0 0.0
2017-Nov-24 09:27N 31°36' E 121°27'0 0.0
2017-Nov-24 08:57N 31°36' E 121°27'0 0.0
2017-Nov-24 08:30N 31°36' E 121°27'  

Dump ship's entire track history